Time;durP1;ratioP1;P1;durP2;ratioP2;P2;SDS_P1;SDS_P2;PMS_P1;PMS_P2;Temp;Humidity;BMP_temperature;BMP_pressure;BME280_temperature;BME280_humidity;BME280_pressure;Samples;Min_cycle;Max_cycle;Signal;HPM_P1;HPM_P2
2022/12/07 00:01:13;;;;;;;;;;;6.00;99.90;;;;;;5075900;28;19908;-87
2022/12/07 00:03:39;;;;;;;;;;;5.90;99.90;;;;;;5076327;28;19975;-88
2022/12/07 00:06:05;;;;;;;;;;;5.90;99.90;;;;;;5075100;28;19909;-88
2022/12/07 00:08:31;;;;;;;;;;;5.80;99.90;;;;;;5076141;28;20202;-88
2022/12/07 00:11:00;;;;;;;;;;;5.80;99.90;;;;;;5074664;28;19924;-88
2022/12/07 00:13:26;;;;;;;;;;;5.70;99.90;;;;;;5076092;28;19908;-88
2022/12/07 00:15:51;;;;;;;;;;;5.60;99.90;;;;;;5074968;28;19962;-87
2022/12/07 00:18:17;;;;;;;;;;;5.60;99.90;;;;;;5074732;28;19969;-88
2022/12/07 00:20:42;;;;;;;;;;;5.50;99.90;;;;;;5074739;28;19919;-87
2022/12/07 00:23:07;;;;;;;;;;;5.60;99.90;;;;;;5074581;28;20475;-88
2022/12/07 00:25:33;;;;;;;;;;;5.50;99.90;;;;;;5074918;28;19974;-87
2022/12/07 00:27:58;;;;;;;;;;;5.60;99.90;;;;;;5074580;28;19909;-87
2022/12/07 00:30:24;;;;;;;;;;;5.60;99.90;;;;;;5074466;28;19995;-88
2022/12/07 00:32:49;;;;;;;;;;;5.60;99.90;;;;;;5075820;28;19916;-87
2022/12/07 00:35:15;;;;;;;;;;;5.60;99.90;;;;;;5074478;28;20262;-87
2022/12/07 00:37:40;;;;;;;;;;;5.70;99.90;;;;;;5074372;28;19932;-88
2022/12/07 00:40:06;;;;;;;;;;;5.70;99.90;;;;;;5074256;28;19909;-88
2022/12/07 00:42:32;;;;;;;;;;;5.80;99.90;;;;;;5074054;28;19908;-88
2022/12/07 00:44:57;;;;;;;;;;;5.80;99.90;;;;;;5075504;28;19909;-88
2022/12/07 00:47:23;;;;;;;;;;;5.80;99.90;;;;;;5074250;28;19997;-88
2022/12/07 00:49:48;;;;;;;;;;;5.70;99.90;;;;;;5074125;28;20354;-88
2022/12/07 00:52:13;;;;;;;;;;;5.80;99.90;;;;;;5075157;28;19912;-88
2022/12/07 00:54:39;;;;;;;;;;;5.80;99.90;;;;;;5074201;28;19909;-88
2022/12/07 00:57:05;;;;;;;;;;;5.80;99.90;;;;;;5073422;28;20354;-87
2022/12/07 00:59:30;;;;;;;;;;;5.80;99.90;;;;;;5074100;28;19944;-87
2022/12/07 01:01:56;;;;;;;;;;;5.80;99.90;;;;;;5073850;28;19908;-87
2022/12/07 01:04:21;;;;;;;;;;;5.80;99.90;;;;;;5074072;28;20263;-88
2022/12/07 01:06:46;;;;;;;;;;;5.90;99.90;;;;;;5074005;28;19915;-87
2022/12/07 01:09:12;;;;;;;;;;;5.90;99.90;;;;;;5075106;28;19908;-87
2022/12/07 01:11:37;;;;;;;;;;;5.90;99.90;;;;;;5073427;28;20031;-88
2022/12/07 01:14:03;;;;;;;;;;;6.00;99.90;;;;;;5073792;28;19938;-88
2022/12/07 01:16:29;;;;;;;;;;;6.10;99.90;;;;;;5075063;28;20004;-87
2022/12/07 01:18:56;;;;;;;;;;;6.10;99.90;;;;;;5073757;28;20353;-88
2022/12/07 01:21:23;;;;;;;;;;;6.10;99.90;;;;;;5073320;28;20370;-87
2022/12/07 01:23:49;;;;;;;;;;;6.10;99.90;;;;;;5073671;28;20263;-88
2022/12/07 01:26:16;;;;;;;;;;;6.10;99.90;;;;;;5073588;28;19908;-87
2022/12/07 01:28:42;;;;;;;;;;;6.10;99.90;;;;;;5073429;28;19995;-87
2022/12/07 01:31:11;;;;;;;;;;;6.10;99.90;;;;;;5073121;28;19948;-88
2022/12/07 01:33:37;;;;;;;;;;;6.10;99.90;;;;;;5074698;28;19909;-88
2022/12/07 01:36:16;;;;;;;;;;;6.10;99.90;;;;;;5073399;28;20332;-88
2022/12/07 01:38:42;;;;;;;;;;;6.20;99.90;;;;;;5073375;28;19997;-88
2022/12/07 01:41:08;;;;;;;;;;;6.30;99.90;;;;;;5074268;28;19908;-88
2022/12/07 01:43:34;;;;;;;;;;;6.30;99.90;;;;;;5073337;28;19912;-88
2022/12/07 01:46:00;;;;;;;;;;;6.40;99.90;;;;;;5073228;28;19908;-88
2022/12/07 01:48:31;;;;;;;;;;;6.30;99.90;;;;;;5073506;28;19948;-87
2022/12/07 01:51:00;;;;;;;;;;;6.20;99.90;;;;;;5073189;28;19912;-88
2022/12/07 01:53:27;;;;;;;;;;;6.20;99.90;;;;;;5073349;28;19915;-87
2022/12/07 01:55:53;;;;;;;;;;;6.10;99.90;;;;;;5073694;28;20115;-88
2022/12/07 01:58:19;;;;;;;;;;;6.20;99.90;;;;;;5073409;28;20366;-87
2022/12/07 02:00:44;;;;;;;;;;;6.20;99.90;;;;;;5082457;28;19907;-88
2022/12/07 02:03:22;;;;;;;;;;;6.20;99.90;;;;;;5098086;28;19923;-88
2022/12/07 02:05:47;;;;;;;;;;;6.10;99.90;;;;;;5074752;28;19909;-88
2022/12/07 02:08:13;;;;;;;;;;;6.10;99.90;;;;;;5071817;28;20320;-88
2022/12/07 02:10:39;;;;;;;;;;;6.00;99.90;;;;;;5072521;28;19916;-87
2022/12/07 02:13:08;;;;;;;;;;;6.10;99.90;;;;;;5072419;28;19919;-88
2022/12/07 02:15:46;;;;;;;;;;;6.10;99.90;;;;;;5072637;28;20385;-88
2022/12/07 02:18:18;;;;;;;;;;;6.00;99.90;;;;;;5072672;28;19915;-88
2022/12/07 02:20:57;;;;;;;;;;;6.10;99.90;;;;;;5072479;28;19909;-88
2022/12/07 02:23:39;;;;;;;;;;;6.10;99.90;;;;;;5073629;28;19919;-88
2022/12/07 02:26:23;;;;;;;;;;;6.10;99.90;;;;;;5072433;28;19991;-88
2022/12/07 02:29:03;;;;;;;;;;;6.20;99.90;;;;;;5072365;28;19958;-88
2022/12/07 02:31:29;;;;;;;;;;;6.20;99.90;;;;;;5071959;28;20366;-88
2022/12/07 02:34:07;;;;;;;;;;;6.20;99.90;;;;;;5072180;28;19967;-88
2022/12/07 02:36:39;;;;;;;;;;;6.20;99.90;;;;;;5072252;28;19913;-88
2022/12/07 02:39:04;;;;;;;;;;;6.20;99.90;;;;;;5072225;28;19908;-88
2022/12/07 02:41:30;;;;;;;;;;;6.20;99.90;;;;;;5071824;28;19908;-88
2022/12/07 02:43:57;;;;;;;;;;;6.20;99.90;;;;;;5072109;28;19916;-88
2022/12/07 02:46:42;;;;;;;;;;;6.20;99.90;;;;;;5072047;28;19948;-88
2022/12/07 02:49:08;;;;;;;;;;;6.10;99.90;;;;;;5072149;28;19979;-87
2022/12/07 02:51:38;;;;;;;;;;;6.10;99.90;;;;;;5071626;28;19920;-87
2022/12/07 02:54:09;;;;;;;;;;;6.10;99.90;;;;;;5072014;28;19908;-88
2022/12/07 02:56:37;;;;;;;;;;;6.10;99.90;;;;;;5073245;28;20003;-88
2022/12/07 02:59:22;;;;;;;;;;;6.10;99.90;;;;;;5072013;28;19912;-88
2022/12/07 03:01:53;;;;;;;;;;;6.00;99.90;;;;;;5071543;28;20440;-88
2022/12/07 03:04:19;;;;;;;;;;;6.10;99.90;;;;;;5073134;28;19908;-88
2022/12/07 03:06:49;;;;;;;;;;;6.10;99.90;;;;;;5071698;28;19908;-87
2022/12/07 03:09:18;;;;;;;;;;;6.10;99.90;;;;;;5072040;28;19957;-87
2022/12/07 03:11:49;;;;;;;;;;;6.10;99.90;;;;;;5100110;22;20409;-84
2022/12/07 03:14:18;;;;;;;;;;;6.00;99.90;;;;;;5078053;28;20029;-86
2022/12/07 03:16:47;;;;;;;;;;;6.00;99.90;;;;;;5077147;28;19915;-84
2022/12/07 03:19:17;;;;;;;;;;;6.00;99.90;;;;;;5077543;28;20380;-85
2022/12/07 03:21:46;;;;;;;;;;;6.00;99.90;;;;;;5077749;28;19915;-85
2022/12/07 03:24:17;;;;;;;;;;;6.10;99.90;;;;;;5077574;28;20006;-85
2022/12/07 03:26:45;;;;;;;;;;;6.10;99.90;;;;;;5079673;28;19935;-86
2022/12/07 03:29:22;;;;;;;;;;;6.10;99.90;;;;;;5080707;28;19924;-85
2022/12/07 03:31:50;;;;;;;;;;;6.00;99.90;;;;;;5077904;28;20354;-84
2022/12/07 03:34:16;;;;;;;;;;;6.10;99.90;;;;;;5077333;28;19909;-85
2022/12/07 03:36:41;;;;;;;;;;;6.20;99.90;;;;;;5077031;28;20403;-85
2022/12/07 03:39:12;;;;;;;;;;;6.20;99.90;;;;;;5077190;28;19935;-85
2022/12/07 03:41:38;;;;;;;;;;;6.20;99.90;;;;;;5077145;28;19909;-85
2022/12/07 03:44:05;;;;;;;;;;;6.30;99.90;;;;;;5077185;28;19915;-84
2022/12/07 03:46:37;;;;;;;;;;;6.40;99.90;;;;;;5077174;28;19909;-85
2022/12/07 03:49:02;;;;;;;;;;;6.30;99.90;;;;;;5077497;28;19909;-85
2022/12/07 03:51:37;;;;;;;;;;;6.20;99.90;;;;;;5076799;28;19912;-85
2022/12/07 03:54:12;;;;;;;;;;;6.30;99.90;;;;;;5077760;28;19908;-85
2022/12/07 03:56:38;;;;;;;;;;;6.30;99.90;;;;;;5077212;28;19908;-84
2022/12/07 03:59:03;;;;;;;;;;;6.10;99.90;;;;;;5076973;28;19915;-85
2022/12/07 04:01:29;;;;;;;;;;;6.10;99.90;;;;;;5076103;28;20007;-85
2022/12/07 04:03:54;;;;;;;;;;;6.10;99.90;;;;;;5076032;28;19916;-86
2022/12/07 04:06:20;;;;;;;;;;;6.10;99.90;;;;;;5076325;28;20403;-84
2022/12/07 04:08:45;;;;;;;;;;;6.20;99.90;;;;;;5078150;28;19908;-85
2022/12/07 04:11:11;;;;;;;;;;;6.10;99.90;;;;;;5075620;28;19928;-85
2022/12/07 04:14:18;;;;;;;;;;;6.10;99.90;;;;;;5072922;28;19960;-85
2022/12/07 04:16:22;;;;;;;;;;;6.10;99.90;;;;;;5077705;28;20003;-84
2022/12/07 04:18:47;;;;;;;;;;;6.10;99.90;;;;;;5076742;28;20134;-85
2022/12/07 04:21:13;;;;;;;;;;;6.00;99.90;;;;;;5077136;28;19908;-84
2022/12/07 04:23:38;;;;;;;;;;;6.00;99.90;;;;;;5077010;28;19953;-85
2022/12/07 04:26:04;;;;;;;;;;;6.00;99.90;;;;;;5073223;28;19909;-85
2022/12/07 04:28:29;;;;;;;;;;;6.10;99.90;;;;;;5070747;28;20431;-85
2022/12/07 04:30:54;;;;;;;;;;;6.10;99.90;;;;;;5072186;28;19946;-84
2022/12/07 04:33:20;;;;;;;;;;;6.00;99.90;;;;;;5074209;28;19935;-86
2022/12/07 04:35:45;;;;;;;;;;;6.00;99.90;;;;;;5074393;28;19908;-85
2022/12/07 04:38:11;;;;;;;;;;;6.00;99.90;;;;;;5075542;28;19912;-85
2022/12/07 04:40:36;;;;;;;;;;;6.00;99.90;;;;;;5074218;28;19908;-85
2022/12/07 04:43:02;;;;;;;;;;;6.00;99.90;;;;;;5073954;28;19974;-85
2022/12/07 04:45:27;;;;;;;;;;;6.00;99.90;;;;;;5074189;28;19915;-85
2022/12/07 04:47:53;;;;;;;;;;;6.10;99.90;;;;;;5074485;28;19908;-85
2022/12/07 04:50:18;;;;;;;;;;;6.00;99.90;;;;;;5075341;28;20417;-85
2022/12/07 04:52:44;;;;;;;;;;;5.90;99.90;;;;;;5074927;28;19919;-85
2022/12/07 04:55:09;;;;;;;;;;;5.80;99.90;;;;;;5074000;28;20008;-85
2022/12/07 04:57:34;;;;;;;;;;;5.90;99.90;;;;;;5076412;28;19908;-85
2022/12/07 05:00:00;;;;;;;;;;;5.90;99.90;;;;;;5078100;28;19913;-85
2022/12/07 05:02:25;;;;;;;;;;;5.90;99.90;;;;;;5074090;28;19908;-85
2022/12/07 05:04:51;;;;;;;;;;;5.90;99.90;;;;;;5074232;28;20369;-84
2022/12/07 05:07:16;;;;;;;;;;;6.00;99.90;;;;;;5075508;28;19958;-85
2022/12/07 05:09:42;;;;;;;;;;;6.00;99.90;;;;;;5073988;28;19908;-85
2022/12/07 05:12:07;;;;;;;;;;;6.00;99.90;;;;;;5073867;28;20293;-85
2022/12/07 05:14:33;;;;;;;;;;;6.00;99.90;;;;;;5074140;28;19915;-85
2022/12/07 05:16:58;;;;;;;;;;;6.00;99.90;;;;;;5074126;28;19908;-85
2022/12/07 05:19:23;;;;;;;;;;;6.00;99.90;;;;;;5073917;28;20373;-85
2022/12/07 05:21:49;;;;;;;;;;;6.00;99.90;;;;;;5073708;28;19908;-85
2022/12/07 05:24:16;;;;;;;;;;;5.90;99.90;;;;;;5077263;28;19916;-84
2022/12/07 05:26:41;;;;;;;;;;;5.90;99.90;;;;;;5075198;28;19991;-85
2022/12/07 05:29:07;;;;;;;;;;;6.00;99.90;;;;;;5073825;28;20366;-85
2022/12/07 05:31:33;;;;;;;;;;;6.00;99.90;;;;;;5073379;28;19919;-85
2022/12/07 05:33:59;;;;;;;;;;;5.90;99.90;;;;;;5073504;28;19916;-86
2022/12/07 05:36:25;;;;;;;;;;;5.90;99.90;;;;;;5074458;28;19909;-86
2022/12/07 05:38:50;;;;;;;;;;;6.00;99.90;;;;;;5073186;28;20291;-84
2022/12/07 05:44:01;;;;;;;;;;;5.90;99.90;;;;;;5074531;28;19918;-85
2022/12/07 05:46:27;;;;;;;;;;;5.90;99.90;;;;;;5072951;28;19908;-85
2022/12/07 05:48:52;;;;;;;;;;;6.00;99.90;;;;;;5072897;28;19909;-86
2022/12/07 05:51:18;;;;;;;;;;;5.90;99.90;;;;;;5072440;28;20322;-85
2022/12/07 05:53:44;;;;;;;;;;;5.90;99.90;;;;;;5072942;28;20004;-85
2022/12/07 05:56:09;;;;;;;;;;;5.80;99.90;;;;;;5072811;28;19960;-86
2022/12/07 06:01:19;;;;;;;;;;;5.60;99.90;;;;;;5074004;28;19915;-84
2022/12/07 06:03:45;;;;;;;;;;;5.50;99.90;;;;;;5072671;28;20312;-85
2022/12/07 06:06:10;;;;;;;;;;;5.40;99.90;;;;;;5072781;28;19934;-85
2022/12/07 06:08:36;;;;;;;;;;;5.30;99.90;;;;;;5072588;28;19914;-86
2022/12/07 06:13:46;;;;;;;;;;;5.40;99.90;;;;;;5074466;28;19954;-86
2022/12/07 06:16:11;;;;;;;;;;;5.40;99.90;;;;;;5072735;28;19913;-86
2022/12/07 06:18:37;;;;;;;;;;;5.50;99.90;;;;;;5084707;28;19999;-85
2022/12/07 06:21:02;;;;;;;;;;;5.50;99.90;;;;;;5073241;28;20320;-86
2022/12/07 06:23:28;;;;;;;;;;;5.60;99.90;;;;;;5075769;28;19909;-86
2022/12/07 06:25:53;;;;;;;;;;;5.60;99.90;;;;;;5076965;28;19912;-86
2022/12/07 06:28:18;;;;;;;;;;;5.60;99.90;;;;;;5072768;28;19913;-86
2022/12/07 06:30:44;;;;;;;;;;;5.70;99.90;;;;;;5072677;28;19908;-86
2022/12/07 06:33:09;;;;;;;;;;;5.70;99.90;;;;;;5073555;28;19913;-87
2022/12/07 06:35:35;;;;;;;;;;;5.70;99.90;;;;;;5073780;28;19909;-86
2022/12/07 06:38:00;;;;;;;;;;;5.60;99.90;;;;;;5073602;28;19913;-86
2022/12/07 06:40:26;;;;;;;;;;;5.60;99.90;;;;;;5072022;28;20388;-86
2022/12/07 06:42:52;;;;;;;;;;;5.70;99.90;;;;;;5073063;28;19919;-86
2022/12/07 06:45:17;;;;;;;;;;;5.60;99.90;;;;;;5072104;28;19908;-86
2022/12/07 06:47:42;;;;;;;;;;;5.60;99.90;;;;;;5071853;28;20011;-86
2022/12/07 06:50:08;;;;;;;;;;;5.60;99.90;;;;;;5071801;28;20273;-85
2022/12/07 06:52:34;;;;;;;;;;;5.70;99.90;;;;;;5072649;28;19913;-86
2022/12/07 06:54:59;;;;;;;;;;;5.70;99.90;;;;;;5071336;28;19916;-86
2022/12/07 06:57:25;;;;;;;;;;;5.80;99.90;;;;;;5071739;28;20436;-85
2022/12/07 06:59:50;;;;;;;;;;;5.80;99.90;;;;;;5077658;28;19908;-86
2022/12/07 07:02:16;;;;;;;;;;;5.70;99.90;;;;;;5080214;28;19938;-86
2022/12/07 07:04:41;;;;;;;;;;;5.70;99.90;;;;;;5079121;28;19919;-86
2022/12/07 07:07:07;;;;;;;;;;;5.70;99.90;;;;;;5074026;28;19909;-85
2022/12/07 07:09:32;;;;;;;;;;;5.70;99.90;;;;;;5072094;28;19908;-86
2022/12/07 07:11:58;;;;;;;;;;;5.60;99.90;;;;;;5071639;28;19916;-86
2022/12/07 07:14:23;;;;;;;;;;;5.50;99.90;;;;;;5072158;28;20436;-86
2022/12/07 07:16:49;;;;;;;;;;;5.50;99.90;;;;;;5072106;28;19969;-87
2022/12/07 07:19:14;;;;;;;;;;;5.50;99.90;;;;;;5071907;28;19948;-87
2022/12/07 07:21:40;;;;;;;;;;;5.50;99.90;;;;;;5071955;28;19908;-86
2022/12/07 07:24:05;;;;;;;;;;;5.50;99.90;;;;;;5071737;28;19975;-87
2022/12/07 07:26:31;;;;;;;;;;;5.50;99.90;;;;;;5071876;28;19913;-87
2022/12/07 07:28:56;;;;;;;;;;;5.50;99.90;;;;;;5071859;28;20071;-86
2022/12/07 07:31:22;;;;;;;;;;;5.50;99.90;;;;;;5070954;28;19915;-87
2022/12/07 07:33:47;;;;;;;;;;;5.50;99.90;;;;;;5071179;28;19916;-87
2022/12/07 07:36:13;;;;;;;;;;;5.50;99.90;;;;;;5071298;28;19908;-87
2022/12/07 07:38:38;;;;;;;;;;;5.50;99.90;;;;;;5071195;28;19908;-88
2022/12/07 07:41:04;;;;;;;;;;;5.60;99.90;;;;;;5071238;28;19909;-87
2022/12/07 07:43:30;;;;;;;;;;;5.60;99.90;;;;;;5071460;28;20371;-85
2022/12/07 07:45:55;;;;;;;;;;;5.70;99.90;;;;;;5071460;28;19958;-88
2022/12/07 07:48:22;;;;;;;;;;;5.60;99.90;;;;;;5071369;28;19935;-87
2022/12/07 07:50:48;;;;;;;;;;;5.70;99.90;;;;;;5071417;28;19953;-85
2022/12/07 07:53:13;;;;;;;;;;;5.70;99.90;;;;;;5071124;28;19912;-88
2022/12/07 07:55:39;;;;;;;;;;;5.70;99.90;;;;;;5071383;28;20344;-87
2022/12/07 07:58:04;;;;;;;;;;;5.70;99.90;;;;;;5071699;28;19908;-86
2022/12/07 08:00:30;;;;;;;;;;;5.70;99.90;;;;;;5072640;28;19909;-87
2022/12/07 08:02:55;;;;;;;;;;;5.70;99.90;;;;;;5072023;28;19908;-87
2022/12/07 08:05:21;;;;;;;;;;;5.70;99.90;;;;;;5070997;28;20321;-86
2022/12/07 08:08:05;;;;;;;;;;;5.50;99.90;;;;;;5077048;28;19977;-87
2022/12/07 08:10:31;;;;;;;;;;;5.60;99.90;;;;;;5075872;28;20436;-88
2022/12/07 08:13:13;;;;;;;;;;;5.60;99.90;;;;;;5075128;28;19916;-86
2022/12/07 08:15:46;;;;;;;;;;;5.70;99.90;;;;;;5075837;28;19909;-86
2022/12/07 08:18:12;;;;;;;;;;;5.70;99.90;;;;;;5076421;28;20011;-86
2022/12/07 08:20:38;;;;;;;;;;;5.80;99.90;;;;;;5077245;28;20366;-86
2022/12/07 08:23:04;;;;;;;;;;;5.90;99.90;;;;;;5075684;28;19909;-86
2022/12/07 08:25:29;;;;;;;;;;;6.00;99.90;;;;;;5076520;28;20282;-85
2022/12/07 08:27:55;;;;;;;;;;;5.90;99.90;;;;;;5074948;28;19916;-86
2022/12/07 08:30:21;;;;;;;;;;;5.80;99.90;;;;;;5074908;28;19913;-86
2022/12/07 08:32:47;;;;;;;;;;;5.80;99.90;;;;;;5074491;28;20467;-86
2022/12/07 08:35:13;;;;;;;;;;;5.80;99.90;;;;;;5074925;28;19948;-86
2022/12/07 08:37:39;;;;;;;;;;;5.90;99.90;;;;;;5074844;28;19909;-86
2022/12/07 08:40:05;;;;;;;;;;;5.90;99.90;;;;;;5074924;28;19915;-85
2022/12/07 08:42:53;;;;;;;;;;;5.90;99.90;;;;;;5072781;28;19916;-85
2022/12/07 08:45:19;;;;;;;;;;;6.00;99.90;;;;;;5066988;28;19909;-85
2022/12/07 08:47:55;;;;;;;;;;;6.10;99.90;;;;;;5054927;28;20015;-86
2022/12/07 08:50:21;;;;;;;;;;;6.20;99.90;;;;;;5065447;28;19908;-85
2022/12/07 08:52:52;;;;;;;;;;;6.30;99.90;;;;;;5074769;28;19916;-86
2022/12/07 08:55:18;;;;;;;;;;;6.30;99.90;;;;;;5075466;28;20362;-85
2022/12/07 08:57:43;;;;;;;;;;;6.20;99.90;;;;;;5073458;28;19915;-85
2022/12/07 09:00:09;;;;;;;;;;;6.20;99.90;;;;;;5074153;28;20251;-85
2022/12/07 09:02:34;;;;;;;;;;;6.30;99.90;;;;;;5073101;28;20008;-84
2022/12/07 09:05:00;;;;;;;;;;;6.50;99.90;;;;;;5065391;28;19966;-85
2022/12/07 09:07:26;;;;;;;;;;;6.70;99.90;;;;;;5054231;28;19916;-85
2022/12/07 09:09:52;;;;;;;;;;;6.70;99.90;;;;;;5117898;22;19917;-86
2022/12/07 09:12:27;;;;;;;;;;;6.60;99.90;;;;;;5091716;28;19930;-87
2022/12/07 09:14:53;;;;;;;;;;;6.80;99.90;;;;;;5093503;28;20003;-87
2022/12/07 09:20:29;;;;;;;;;;;6.80;99.90;;;;;;5095560;28;19908;-87
2022/12/07 09:22:54;;;;;;;;;;;6.90;99.90;;;;;;5089662;28;19931;-88
2022/12/07 09:25:20;;;;;;;;;;;7.00;99.90;;;;;;5073549;28;19994;-88
2022/12/07 09:27:45;;;;;;;;;;;7.10;99.90;;;;;;5073403;28;20058;-88
2022/12/07 09:30:10;;;;;;;;;;;7.10;99.90;;;;;;5073279;28;19979;-88
2022/12/07 09:32:36;;;;;;;;;;;7.00;99.90;;;;;;5072685;28;19966;-88
2022/12/07 09:35:02;;;;;;;;;;;7.00;99.90;;;;;;5073198;28;19995;-87
2022/12/07 09:37:28;;;;;;;;;;;7.10;99.90;;;;;;5073272;28;19909;-88
2022/12/07 09:40:01;;;;;;;;;;;7.10;99.90;;;;;;5073115;28;19933;-86
2022/12/07 09:42:29;;;;;;;;;;;7.10;99.90;;;;;;5073567;28;19947;-88
2022/12/07 09:44:55;;;;;;;;;;;7.00;99.90;;;;;;5073174;28;20266;-88
2022/12/07 09:47:20;;;;;;;;;;;7.20;99.90;;;;;;5073193;28;19957;-88
2022/12/07 09:49:46;;;;;;;;;;;7.40;99.90;;;;;;5073205;28;19909;-87
2022/12/07 09:52:20;;;;;;;;;;;7.40;99.90;;;;;;5072694;28;19919;-87
2022/12/07 09:54:49;;;;;;;;;;;7.60;99.90;;;;;;5072906;28;19955;-87
2022/12/07 09:57:15;;;;;;;;;;;7.70;99.90;;;;;;5072866;28;20459;-88
2022/12/07 09:59:41;;;;;;;;;;;7.70;99.90;;;;;;5074019;28;19948;-88
2022/12/07 10:02:25;;;;;;;;;;;7.80;99.90;;;;;;5072403;28;19909;-88
2022/12/07 10:04:51;;;;;;;;;;;7.80;99.90;;;;;;5073906;28;19913;-88
2022/12/07 10:07:16;;;;;;;;;;;7.70;99.90;;;;;;5072618;28;20354;-87
2022/12/07 10:09:42;;;;;;;;;;;7.50;99.90;;;;;;5072643;28;19963;-86
2022/12/07 10:12:09;;;;;;;;;;;7.40;99.90;;;;;;5072064;28;20010;-87
2022/12/07 10:14:37;;;;;;;;;;;7.50;99.90;;;;;;5072403;28;20003;-87
2022/12/07 10:17:02;;;;;;;;;;;7.50;99.90;;;;;;5072502;28;19967;-87
2022/12/07 10:19:29;;;;;;;;;;;7.50;99.90;;;;;;5072429;28;19951;-86
2022/12/07 10:22:02;;;;;;;;;;;7.60;99.90;;;;;;5071993;28;19982;-88
2022/12/07 10:24:28;;;;;;;;;;;7.70;99.90;;;;;;5072335;28;19909;-86
2022/12/07 10:26:56;;;;;;;;;;;7.70;99.90;;;;;;5072806;28;21438;-87
2022/12/07 10:29:21;;;;;;;;;;;7.70;99.90;;;;;;5071306;28;19939;-88
2022/12/07 10:31:58;;;;;;;;;;;7.90;99.90;;;;;;5088782;28;19912;-87
2022/12/07 10:34:34;;;;;;;;;;;8.00;99.90;;;;;;5072066;28;19908;-88
2022/12/07 10:37:16;;;;;;;;;;;8.20;99.90;;;;;;5072204;28;19912;-88
2022/12/07 10:39:45;;;;;;;;;;;8.30;99.90;;;;;;5072048;28;19920;-87
2022/12/07 10:42:18;;;;;;;;;;;8.50;99.90;;;;;;5072106;28;20336;-87
2022/12/07 10:44:44;;;;;;;;;;;8.50;99.90;;;;;;5071837;28;20369;-87
2022/12/07 10:47:09;;;;;;;;;;;8.50;99.90;;;;;;5071950;28;19934;-87
2022/12/07 10:49:35;;;;;;;;;;;8.50;99.90;;;;;;5073100;28;19909;-86
2022/12/07 10:52:09;;;;;;;;;;;8.40;99.90;;;;;;5088277;28;19921;-86
2022/12/07 10:54:35;;;;;;;;;;;8.40;99.90;;;;;;5088643;28;19915;-86
2022/12/07 10:57:22;;;;;;;;;;;8.30;99.90;;;;;;5088819;28;19987;-86
2022/12/07 11:00:00;;;;;;;;;;;8.40;99.90;;;;;;5071666;28;20015;-86
2022/12/07 11:02:42;;;;;;;;;;;8.50;99.90;;;;;;5071510;28;19962;-86
2022/12/07 11:05:26;;;;;;;;;;;8.40;99.90;;;;;;5071725;28;19944;-86
2022/12/07 11:07:58;;;;;;;;;;;8.40;99.90;;;;;;5088655;28;19909;-85
2022/12/07 11:10:24;;;;;;;;;;;8.60;99.90;;;;;;5089364;28;19912;-86
2022/12/07 11:12:58;;;;;;;;;;;8.80;99.90;;;;;;5088261;28;19920;-86
2022/12/07 11:15:26;;;;;;;;;;;8.70;99.90;;;;;;5071583;28;19912;-84
2022/12/07 11:17:56;;;;;;;;;;;8.60;99.90;;;;;;5072812;28;19913;-86
2022/12/07 11:20:37;;;;;;;;;;;8.40;99.90;;;;;;5071826;28;19912;-87
2022/12/07 11:23:11;;;;;;;;;;;8.10;99.90;;;;;;5088172;28;20349;-85
2022/12/07 11:25:45;;;;;;;;;;;7.90;99.90;;;;;;5071558;28;19916;-85
2022/12/07 11:28:17;;;;;;;;;;;7.80;99.90;;;;;;5071405;28;20373;-86
2022/12/07 11:30:48;;;;;;;;;;;7.90;99.90;;;;;;5088292;28;19909;-86
2022/12/07 11:33:32;;;;;;;;;;;8.00;99.90;;;;;;5071179;28;20404;-86
2022/12/07 11:36:00;;;;;;;;;;;7.90;99.90;;;;;;5072632;28;20358;-86
2022/12/07 11:38:42;;;;;;;;;;;7.90;99.90;;;;;;5088217;28;19908;-86
2022/12/07 11:41:14;;;;;;;;;;;7.90;99.90;;;;;;5073654;28;19916;-86
2022/12/07 11:43:49;;;;;;;;;;;7.80;99.90;;;;;;5075467;28;19909;-86
2022/12/07 11:46:16;;;;;;;;;;;7.80;99.90;;;;;;5092366;28;19909;-85
2022/12/07 11:49:02;;;;;;;;;;;7.80;99.90;;;;;;5075421;28;19909;-86
2022/12/07 11:51:29;;;;;;;;;;;7.80;99.90;;;;;;5074679;28;19908;-85
2022/12/07 11:53:57;;;;;;;;;;;7.90;99.90;;;;;;5075251;28;19909;-84
2022/12/07 11:56:27;;;;;;;;;;;7.90;99.90;;;;;;5075225;28;19915;-86
2022/12/07 11:59:10;;;;;;;;;;;7.80;99.90;;;;;;5075173;28;19908;-86
2022/12/07 12:01:38;;;;;;;;;;;7.70;99.90;;;;;;5075987;28;19909;-87
2022/12/07 12:04:23;;;;;;;;;;;7.70;99.90;;;;;;5092102;28;20364;-85
2022/12/07 12:06:49;;;;;;;;;;;7.70;99.90;;;;;;5071121;28;20381;-85
2022/12/07 12:09:14;;;;;;;;;;;7.80;99.90;;;;;;5074918;28;19910;-86
2022/12/07 12:11:59;;;;;;;;;;;7.90;99.90;;;;;;5091060;28;19949;-86
2022/12/07 12:14:43;;;;;;;;;;;8.00;99.90;;;;;;5091754;28;19999;-86
2022/12/07 12:17:27;;;;;;;;;;;8.00;99.90;;;;;;5092514;28;20258;-84
2022/12/07 12:20:12;;;;;;;;;;;8.00;99.90;;;;;;5092540;28;19912;-85
2022/12/07 12:22:39;;;;;;;;;;;8.00;99.90;;;;;;5076438;28;20366;-85
2022/12/07 12:25:07;;;;;;;;;;;8.10;99.90;;;;;;5076649;28;19915;-86
2022/12/07 12:27:36;;;;;;;;;;;8.20;99.90;;;;;;5074505;28;20309;-85
2022/12/07 12:30:04;;;;;;;;;;;8.20;99.90;;;;;;5074578;28;19973;-85
2022/12/07 12:32:33;;;;;;;;;;;8.20;99.90;;;;;;5074259;28;19916;-85
2022/12/07 12:35:02;;;;;;;;;;;8.30;99.90;;;;;;5091430;28;19909;-85
2022/12/07 12:37:33;;;;;;;;;;;8.30;99.90;;;;;;5074882;28;19931;-85
2022/12/07 12:40:30;;;;;;;;;;;8.30;99.90;;;;;;5075720;28;20352;-85
2022/12/07 12:42:56;;;;;;;;;;;8.20;99.90;;;;;;5074116;28;19935;-84
2022/12/07 12:45:26;;;;;;;;;;;8.20;99.90;;;;;;5074388;28;19916;-84
2022/12/07 12:48:10;;;;;;;;;;;8.30;99.90;;;;;;5074400;28;19909;-85
2022/12/07 12:50:37;;;;;;;;;;;8.30;99.90;;;;;;5091412;28;19938;-87
2022/12/07 12:53:05;;;;;;;;;;;8.30;99.90;;;;;;5073054;28;19985;-86
2022/12/07 12:55:42;;;;;;;;;;;8.10;99.90;;;;;;5074225;28;19909;-86
2022/12/07 12:58:17;;;;;;;;;;;8.00;99.90;;;;;;5091138;28;19908;-86
2022/12/07 13:00:43;;;;;;;;;;;7.90;99.90;;;;;;5091523;28;19909;-85
2022/12/07 13:03:26;;;;;;;;;;;7.90;99.90;;;;;;5074059;28;20365;-86
2022/12/07 13:06:11;;;;;;;;;;;8.00;99.90;;;;;;5074485;28;19909;-86
2022/12/07 13:08:40;;;;;;;;;;;8.30;99.90;;;;;;5074101;28;19966;-85
2022/12/07 13:11:17;;;;;;;;;;;8.30;99.90;;;;;;5073798;28;20006;-86
2022/12/07 13:13:43;;;;;;;;;;;8.40;99.90;;;;;;5091226;28;20046;-86
2022/12/07 13:16:08;;;;;;;;;;;8.10;99.90;;;;;;5074205;28;19958;-86
2022/12/07 13:18:34;;;;;;;;;;;8.20;99.90;;;;;;5091157;28;19908;-86
2022/12/07 13:21:08;;;;;;;;;;;8.30;99.90;;;;;;5075132;28;19912;-85
2022/12/07 13:23:37;;;;;;;;;;;8.20;99.90;;;;;;5075578;28;19969;-85
2022/12/07 13:26:14;;;;;;;;;;;8.30;99.90;;;;;;5075426;28;19908;-87
2022/12/07 13:28:46;;;;;;;;;;;8.30;99.90;;;;;;5073886;28;19915;-85
2022/12/07 13:31:19;;;;;;;;;;;8.30;99.90;;;;;;5090635;28;20002;-86
2022/12/07 13:33:45;;;;;;;;;;;8.30;99.90;;;;;;5073704;28;19944;-86
2022/12/07 13:36:17;;;;;;;;;;;8.20;99.90;;;;;;5073542;28;19917;-85
2022/12/07 13:38:48;;;;;;;;;;;8.20;99.90;;;;;;5073576;28;19908;-85
2022/12/07 13:41:15;;;;;;;;;;;8.20;99.90;;;;;;5074183;28;20419;-86
2022/12/07 13:43:44;;;;;;;;;;;8.20;99.90;;;;;;5073587;28;20360;-85
2022/12/07 13:46:16;;;;;;;;;;;8.20;99.90;;;;;;5074901;28;19917;-85
2022/12/07 13:48:46;;;;;;;;;;;8.10;99.90;;;;;;5079707;28;19916;-85
2022/12/07 13:51:23;;;;;;;;;;;8.20;99.90;;;;;;5092654;28;19912;-85
2022/12/07 13:53:50;;;;;;;;;;;8.20;99.90;;;;;;5093027;28;20277;-85
2022/12/07 13:56:16;;;;;;;;;;;8.10;99.90;;;;;;5092957;28;19908;-85
2022/12/07 13:58:44;;;;;;;;;;;8.10;99.90;;;;;;5093252;28;19908;-85
2022/12/07 14:01:10;;;;;;;;;;;8.10;99.90;;;;;;5092752;28;19951;-86
2022/12/07 14:03:38;;;;;;;;;;;8.00;99.90;;;;;;5092908;28;19908;-86
2022/12/07 14:06:14;;;;;;;;;;;8.00;99.90;;;;;;5092953;28;19915;-86
2022/12/07 14:08:42;;;;;;;;;;;8.00;99.90;;;;;;5093114;28;19915;-86
2022/12/07 14:11:12;;;;;;;;;;;7.90;99.90;;;;;;5092440;28;19954;-86
2022/12/07 14:13:45;;;;;;;;;;;7.90;99.90;;;;;;5092640;28;19966;-86
2022/12/07 14:16:27;;;;;;;;;;;7.90;99.90;;;;;;5094312;28;19924;-85
2022/12/07 14:18:53;;;;;;;;;;;7.80;99.90;;;;;;5093037;28;19908;-86
2022/12/07 14:21:23;;;;;;;;;;;7.80;99.90;;;;;;5093619;28;19915;-87
2022/12/07 14:24:17;;;;;;;;;;;7.80;99.90;;;;;;5092353;28;19919;-86
2022/12/07 14:26:43;;;;;;;;;;;7.80;99.90;;;;;;5092505;28;19908;-86
2022/12/07 14:29:28;;;;;;;;;;;7.80;99.90;;;;;;5092523;28;19908;-86
2022/12/07 14:32:20;;;;;;;;;;;7.80;99.90;;;;;;5093146;28;19973;-87
2022/12/07 14:34:54;;;;;;;;;;;7.70;99.90;;;;;;5076358;28;19916;-86
2022/12/07 14:37:20;;;;;;;;;;;7.80;99.90;;;;;;5092025;28;20011;-86
2022/12/07 14:39:51;;;;;;;;;;;7.80;99.90;;;;;;5091004;28;19959;-86
2022/12/07 14:42:17;;;;;;;;;;;7.80;99.90;;;;;;5091845;28;19953;-85
2022/12/07 14:44:43;;;;;;;;;;;7.70;99.90;;;;;;5092511;28;19924;-86
2022/12/07 14:47:12;;;;;;;;;;;7.70;99.90;;;;;;5092590;28;19910;-86
2022/12/07 14:49:37;;;;;;;;;;;7.60;99.90;;;;;;5092239;28;20400;-86
2022/12/07 14:52:03;;;;;;;;;;;7.50;99.90;;;;;;5091796;28;19912;-86